sensor_id;sensor_type;location;lat;lon;timestamp;P1;durP1;ratioP1;P2;durP2;ratioP2
30605;SDS011;17371;51.328;3.860;2022-12-29T00:00:49;2.87;;;1.40;;
30605;SDS011;17371;51.328;3.860;2022-12-29T00:03:14;2.72;;;1.27;;
30605;SDS011;17371;51.328;3.860;2022-12-29T00:05:40;4.20;;;1.60;;
30605;SDS011;17371;51.328;3.860;2022-12-29T00:08:05;3.10;;;1.30;;
30605;SDS011;17371;51.328;3.860;2022-12-29T00:10:32;2.33;;;1.60;;
30605;SDS011;17371;51.328;3.860;2022-12-29T00:12:57;1.70;;;1.30;;
30605;SDS011;17371;51.328;3.860;2022-12-29T00:15:23;2.37;;;1.60;;
30605;SDS011;17371;51.328;3.860;2022-12-29T00:17:48;2.30;;;1.37;;
30605;SDS011;17371;51.328;3.860;2022-12-29T00:20:14;2.20;;;1.70;;
30605;SDS011;17371;51.328;3.860;2022-12-29T00:22:39;2.80;;;1.60;;
30605;SDS011;17371;51.328;3.860;2022-12-29T00:25:05;2.45;;;1.20;;
30605;SDS011;17371;51.328;3.860;2022-12-29T00:27:34;2.53;;;1.60;;
30605;SDS011;17371;51.328;3.860;2022-12-29T00:30:00;3.35;;;1.90;;
30605;SDS011;17371;51.328;3.860;2022-12-29T00:32:25;2.87;;;1.70;;
30605;SDS011;17371;51.328;3.860;2022-12-29T00:34:50;2.70;;;1.90;;
30605;SDS011;17371;51.328;3.860;2022-12-29T00:37:16;2.80;;;1.92;;
30605;SDS011;17371;51.328;3.860;2022-12-29T00:39:42;4.40;;;1.97;;
30605;SDS011;17371;51.328;3.860;2022-12-29T00:42:08;4.43;;;1.92;;
30605;SDS011;17371;51.328;3.860;2022-12-29T00:44:35;3.83;;;1.85;;
30605;SDS011;17371;51.328;3.860;2022-12-29T00:47:01;2.80;;;1.90;;
30605;SDS011;17371;51.328;3.860;2022-12-29T00:49:26;2.58;;;1.52;;
30605;SDS011;17371;51.328;3.860;2022-12-29T00:51:52;2.90;;;1.57;;
30605;SDS011;17371;51.328;3.860;2022-12-29T00:54:18;3.42;;;1.50;;
30605;SDS011;17371;51.328;3.860;2022-12-29T00:56:45;3.57;;;1.27;;
30605;SDS011;17371;51.328;3.860;2022-12-29T00:59:10;3.95;;;1.40;;
30605;SDS011;17371;51.328;3.860;2022-12-29T01:01:37;3.93;;;1.00;;
30605;SDS011;17371;51.328;3.860;2022-12-29T01:04:03;1.70;;;0.95;;
30605;SDS011;17371;51.328;3.860;2022-12-29T01:06:29;2.10;;;1.30;;
30605;SDS011;17371;51.328;3.860;2022-12-29T01:08:54;1.20;;;1.10;;
30605;SDS011;17371;51.328;3.860;2022-12-29T01:11:19;1.60;;;0.93;;
30605;SDS011;17371;51.328;3.860;2022-12-29T01:13:45;4.45;;;1.45;;
30605;SDS011;17371;51.328;3.860;2022-12-29T01:16:10;2.00;;;0.77;;
30605;SDS011;17371;51.328;3.860;2022-12-29T01:18:38;5.20;;;1.10;;
30605;SDS011;17371;51.328;3.860;2022-12-29T01:21:05;2.60;;;1.40;;
30605;SDS011;17371;51.328;3.860;2022-12-29T01:23:31;3.83;;;1.27;;
30605;SDS011;17371;51.328;3.860;2022-12-29T01:25:57;3.30;;;1.50;;
30605;SDS011;17371;51.328;3.860;2022-12-29T01:28:22;3.07;;;1.40;;
30605;SDS011;17371;51.328;3.860;2022-12-29T01:30:48;2.13;;;1.10;;
30605;SDS011;17371;51.328;3.860;2022-12-29T01:33:13;8.43;;;1.70;;
30605;SDS011;17371;51.328;3.860;2022-12-29T01:35:40;4.87;;;1.17;;
30605;SDS011;17371;51.328;3.860;2022-12-29T01:38:05;4.38;;;1.45;;
30605;SDS011;17371;51.328;3.860;2022-12-29T01:40:31;2.60;;;1.30;;
30605;SDS011;17371;51.328;3.860;2022-12-29T01:42:56;7.82;;;1.45;;
30605;SDS011;17371;51.328;3.860;2022-12-29T01:45:22;3.47;;;1.13;;
30605;SDS011;17371;51.328;3.860;2022-12-29T01:47:48;3.00;;;1.00;;
30605;SDS011;17371;51.328;3.860;2022-12-29T01:50:16;2.92;;;0.98;;
30605;SDS011;17371;51.328;3.860;2022-12-29T01:52:48;3.22;;;1.25;;
30605;SDS011;17371;51.328;3.860;2022-12-29T01:55:16;4.75;;;2.90;;
30605;SDS011;17371;51.328;3.860;2022-12-29T01:57:43;4.27;;;1.60;;
30605;SDS011;17371;51.328;3.860;2022-12-29T02:00:11;6.28;;;1.75;;
30605;SDS011;17371;51.328;3.860;2022-12-29T02:02:38;7.90;;;1.90;;
30605;SDS011;17371;51.328;3.860;2022-12-29T02:05:05;6.57;;;1.67;;
30605;SDS011;17371;51.328;3.860;2022-12-29T02:07:34;5.10;;;1.48;;
30605;SDS011;17371;51.328;3.860;2022-12-29T02:10:01;5.40;;;1.30;;
30605;SDS011;17371;51.328;3.860;2022-12-29T02:12:27;6.45;;;1.70;;
30605;SDS011;17371;51.328;3.860;2022-12-29T02:14:53;5.87;;;2.03;;
30605;SDS011;17371;51.328;3.860;2022-12-29T02:17:22;4.47;;;1.70;;
30605;SDS011;17371;51.328;3.860;2022-12-29T02:20:00;6.00;;;1.90;;
30605;SDS011;17371;51.328;3.860;2022-12-29T02:22:38;6.50;;;1.90;;
30605;SDS011;17371;51.328;3.860;2022-12-29T02:25:14;5.05;;;1.50;;
30605;SDS011;17371;51.328;3.860;2022-12-29T02:28:04;2.63;;;1.57;;
30605;SDS011;17371;51.328;3.860;2022-12-29T02:30:45;4.68;;;1.33;;
30605;SDS011;17371;51.328;3.860;2022-12-29T02:33:21;4.38;;;1.40;;
30605;SDS011;17371;51.328;3.860;2022-12-29T02:35:54;5.95;;;1.60;;
30605;SDS011;17371;51.328;3.860;2022-12-29T02:38:25;7.10;;;1.58;;
30605;SDS011;17371;51.328;3.860;2022-12-29T02:40:58;6.87;;;1.27;;
30605;SDS011;17371;51.328;3.860;2022-12-29T02:43:30;3.35;;;1.25;;
30605;SDS011;17371;51.328;3.860;2022-12-29T02:46:03;10.10;;;1.60;;
30605;SDS011;17371;51.328;3.860;2022-12-29T02:48:32;7.13;;;1.60;;
30605;SDS011;17371;51.328;3.860;2022-12-29T02:51:03;5.93;;;1.40;;
30605;SDS011;17371;51.328;3.860;2022-12-29T02:53:30;4.37;;;1.23;;
30605;SDS011;17371;51.328;3.860;2022-12-29T02:55:57;6.05;;;1.52;;
30605;SDS011;17371;51.328;3.860;2022-12-29T02:58:22;4.83;;;1.40;;
30605;SDS011;17371;51.328;3.860;2022-12-29T03:00:52;7.32;;;1.38;;
30605;SDS011;17371;51.328;3.860;2022-12-29T03:03:24;4.25;;;1.33;;
30605;SDS011;17371;51.328;3.860;2022-12-29T03:05:57;2.77;;;1.33;;
30605;SDS011;17371;51.328;3.860;2022-12-29T03:08:33;3.72;;;1.10;;
30605;SDS011;17371;51.328;3.860;2022-12-29T03:11:02;3.15;;;1.35;;
30605;SDS011;17371;51.328;3.860;2022-12-29T03:13:30;4.80;;;1.02;;
30605;SDS011;17371;51.328;3.860;2022-12-29T03:16:01;7.28;;;1.63;;
30605;SDS011;17371;51.328;3.860;2022-12-29T03:18:34;6.47;;;1.50;;
30605;SDS011;17371;51.328;3.860;2022-12-29T03:21:08;8.45;;;1.45;;
30605;SDS011;17371;51.328;3.860;2022-12-29T03:23:36;5.28;;;1.10;;
30605;SDS011;17371;51.328;3.860;2022-12-29T03:26:04;6.03;;;1.40;;
30605;SDS011;17371;51.328;3.860;2022-12-29T03:28:33;3.53;;;0.90;;
30605;SDS011;17371;51.328;3.860;2022-12-29T03:31:01;7.73;;;1.63;;
30605;SDS011;17371;51.328;3.860;2022-12-29T03:33:28;7.18;;;1.90;;
30605;SDS011;17371;51.328;3.860;2022-12-29T03:35:58;6.10;;;1.30;;
30605;SDS011;17371;51.328;3.860;2022-12-29T03:38:27;9.32;;;1.52;;
30605;SDS011;17371;51.328;3.860;2022-12-29T03:40:56;8.52;;;1.63;;
30605;SDS011;17371;51.328;3.860;2022-12-29T03:43:23;6.60;;;1.83;;
30605;SDS011;17371;51.328;3.860;2022-12-29T03:45:49;8.57;;;1.65;;
30605;SDS011;17371;51.328;3.860;2022-12-29T03:48:15;7.07;;;1.67;;
30605;SDS011;17371;51.328;3.860;2022-12-29T03:50:40;10.75;;;1.63;;
30605;SDS011;17371;51.328;3.860;2022-12-29T03:53:07;7.23;;;1.90;;
30605;SDS011;17371;51.328;3.860;2022-12-29T03:55:32;7.05;;;1.80;;
30605;SDS011;17371;51.328;3.860;2022-12-29T03:57:58;11.13;;;1.67;;
30605;SDS011;17371;51.328;3.860;2022-12-29T04:00:23;9.30;;;1.90;;
30605;SDS011;17371;51.328;3.860;2022-12-29T04:02:49;6.20;;;1.73;;
30605;SDS011;17371;51.328;3.860;2022-12-29T04:05:14;10.52;;;1.30;;
30605;SDS011;17371;51.328;3.860;2022-12-29T04:07:39;9.95;;;1.55;;
30605;SDS011;17371;51.328;3.860;2022-12-29T04:10:07;11.80;;;1.70;;
30605;SDS011;17371;51.328;3.860;2022-12-29T04:12:33;13.50;;;1.55;;
30605;SDS011;17371;51.328;3.860;2022-12-29T04:14:58;11.00;;;2.00;;
30605;SDS011;17371;51.328;3.860;2022-12-29T04:17:24;12.37;;;1.97;;
30605;SDS011;17371;51.328;3.860;2022-12-29T04:19:49;15.13;;;2.00;;
30605;SDS011;17371;51.328;3.860;2022-12-29T04:22:15;17.65;;;2.25;;
30605;SDS011;17371;51.328;3.860;2022-12-29T04:24:40;10.30;;;1.97;;
30605;SDS011;17371;51.328;3.860;2022-12-29T04:27:07;10.33;;;2.20;;
30605;SDS011;17371;51.328;3.860;2022-12-29T04:29:32;15.82;;;2.08;;
30605;SDS011;17371;51.328;3.860;2022-12-29T04:31:58;20.17;;;2.10;;
30605;SDS011;17371;51.328;3.860;2022-12-29T04:34:23;9.40;;;2.07;;
30605;SDS011;17371;51.328;3.860;2022-12-29T04:36:48;13.17;;;1.90;;
30605;SDS011;17371;51.328;3.860;2022-12-29T04:39:14;12.68;;;1.90;;
30605;SDS011;17371;51.328;3.860;2022-12-29T04:41:39;12.83;;;2.17;;
30605;SDS011;17371;51.328;3.860;2022-12-29T04:44:06;11.37;;;2.00;;
30605;SDS011;17371;51.328;3.860;2022-12-29T04:46:31;12.00;;;2.10;;
30605;SDS011;17371;51.328;3.860;2022-12-29T04:48:57;10.33;;;3.13;;
30605;SDS011;17371;51.328;3.860;2022-12-29T04:51:22;13.20;;;1.60;;
30605;SDS011;17371;51.328;3.860;2022-12-29T04:53:47;11.37;;;1.73;;
30605;SDS011;17371;51.328;3.860;2022-12-29T04:56:13;13.77;;;2.03;;
30605;SDS011;17371;51.328;3.860;2022-12-29T04:58:39;9.60;;;1.52;;
30605;SDS011;17371;51.328;3.860;2022-12-29T05:01:06;7.80;;;1.80;;
30605;SDS011;17371;51.328;3.860;2022-12-29T05:03:31;11.43;;;2.13;;
30605;SDS011;17371;51.328;3.860;2022-12-29T05:05:57;14.17;;;1.80;;
30605;SDS011;17371;51.328;3.860;2022-12-29T05:08:22;9.25;;;1.60;;
30605;SDS011;17371;51.328;3.860;2022-12-29T05:10:49;9.93;;;1.60;;
30605;SDS011;17371;51.328;3.860;2022-12-29T05:13:14;9.90;;;1.90;;
30605;SDS011;17371;51.328;3.860;2022-12-29T05:15:40;9.90;;;2.25;;
30605;SDS011;17371;51.328;3.860;2022-12-29T05:18:06;10.17;;;2.20;;
30605;SDS011;17371;51.328;3.860;2022-12-29T05:20:32;6.40;;;1.30;;
30605;SDS011;17371;51.328;3.860;2022-12-29T05:22:57;15.63;;;2.92;;
30605;SDS011;17371;51.328;3.860;2022-12-29T05:25:23;9.13;;;1.70;;
30605;SDS011;17371;51.328;3.860;2022-12-29T05:27:48;7.97;;;1.83;;
30605;SDS011;17371;51.328;3.860;2022-12-29T05:30:13;10.20;;;1.80;;
30605;SDS011;17371;51.328;3.860;2022-12-29T05:32:39;8.60;;;1.50;;
30605;SDS011;17371;51.328;3.860;2022-12-29T05:35:06;7.13;;;2.85;;
30605;SDS011;17371;51.328;3.860;2022-12-29T05:37:32;9.10;;;2.22;;
30605;SDS011;17371;51.328;3.860;2022-12-29T05:39:58;6.47;;;1.70;;
30605;SDS011;17371;51.328;3.860;2022-12-29T05:42:23;9.25;;;2.28;;
30605;SDS011;17371;51.328;3.860;2022-12-29T05:44:49;6.30;;;1.67;;
30605;SDS011;17371;51.328;3.860;2022-12-29T05:47:14;9.80;;;1.90;;
30605;SDS011;17371;51.328;3.860;2022-12-29T05:49:39;7.10;;;1.93;;
30605;SDS011;17371;51.328;3.860;2022-12-29T05:52:06;12.40;;;1.70;;
30605;SDS011;17371;51.328;3.860;2022-12-29T05:54:31;11.25;;;2.10;;
30605;SDS011;17371;51.328;3.860;2022-12-29T05:56:57;6.80;;;1.40;;
30605;SDS011;17371;51.328;3.860;2022-12-29T05:59:22;6.07;;;1.57;;
30605;SDS011;17371;51.328;3.860;2022-12-29T06:01:48;8.98;;;1.70;;
30605;SDS011;17371;51.328;3.860;2022-12-29T06:04:13;12.97;;;1.83;;
30605;SDS011;17371;51.328;3.860;2022-12-29T06:06:39;8.37;;;2.00;;
30605;SDS011;17371;51.328;3.860;2022-12-29T06:09:05;9.00;;;1.90;;
30605;SDS011;17371;51.328;3.860;2022-12-29T06:11:31;11.95;;;1.83;;
30605;SDS011;17371;51.328;3.860;2022-12-29T06:13:56;12.53;;;1.83;;
30605;SDS011;17371;51.328;3.860;2022-12-29T06:16:21;7.43;;;1.70;;
30605;SDS011;17371;51.328;3.860;2022-12-29T06:18:47;14.43;;;2.07;;
30605;SDS011;17371;51.328;3.860;2022-12-29T06:21:12;11.63;;;1.88;;
30605;SDS011;17371;51.328;3.860;2022-12-29T06:23:38;10.05;;;2.28;;
30605;SDS011;17371;51.328;3.860;2022-12-29T06:26:04;7.47;;;1.70;;
30605;SDS011;17371;51.328;3.860;2022-12-29T06:28:30;8.93;;;1.92;;
30605;SDS011;17371;51.328;3.860;2022-12-29T06:30:55;7.73;;;1.47;;
30605;SDS011;17371;51.328;3.860;2022-12-29T06:33:21;18.83;;;2.50;;
30605;SDS011;17371;51.328;3.860;2022-12-29T06:35:46;14.53;;;2.30;;
30605;SDS011;17371;51.328;3.860;2022-12-29T06:38:11;15.23;;;2.30;;
30605;SDS011;17371;51.328;3.860;2022-12-29T06:40:37;11.38;;;2.42;;
30605;SDS011;17371;51.328;3.860;2022-12-29T06:43:04;23.43;;;2.83;;
30605;SDS011;17371;51.328;3.860;2022-12-29T06:45:29;13.60;;;2.75;;
30605;SDS011;17371;51.328;3.860;2022-12-29T06:47:54;13.87;;;2.50;;
30605;SDS011;17371;51.328;3.860;2022-12-29T06:50:20;13.10;;;2.20;;
30605;SDS011;17371;51.328;3.860;2022-12-29T06:52:45;11.33;;;1.87;;
30605;SDS011;17371;51.328;3.860;2022-12-29T06:55:11;11.40;;;2.20;;
30605;SDS011;17371;51.328;3.860;2022-12-29T06:57:36;11.47;;;2.30;;
30605;SDS011;17371;51.328;3.860;2022-12-29T07:00:04;12.13;;;1.95;;
30605;SDS011;17371;51.328;3.860;2022-12-29T07:02:31;9.48;;;1.70;;
30605;SDS011;17371;51.328;3.860;2022-12-29T07:04:57;17.03;;;2.53;;
30605;SDS011;17371;51.328;3.860;2022-12-29T07:07:22;11.18;;;2.03;;
30605;SDS011;17371;51.328;3.860;2022-12-29T07:09:47;13.33;;;2.47;;
30605;SDS011;17371;51.328;3.860;2022-12-29T07:12:13;15.30;;;2.53;;
30605;SDS011;17371;51.328;3.860;2022-12-29T07:14:38;12.33;;;2.20;;
30605;SDS011;17371;51.328;3.860;2022-12-29T07:17:05;16.75;;;1.90;;
30605;SDS011;17371;51.328;3.860;2022-12-29T07:19:30;14.17;;;1.97;;
30605;SDS011;17371;51.328;3.860;2022-12-29T07:21:56;12.73;;;2.50;;
30605;SDS011;17371;51.328;3.860;2022-12-29T07:24:21;9.18;;;1.67;;
30605;SDS011;17371;51.328;3.860;2022-12-29T07:26:46;10.93;;;1.80;;
30605;SDS011;17371;51.328;3.860;2022-12-29T07:29:12;15.70;;;2.27;;
30605;SDS011;17371;51.328;3.860;2022-12-29T07:31:37;11.97;;;2.37;;
30605;SDS011;17371;51.328;3.860;2022-12-29T07:34:04;13.27;;;2.50;;
30605;SDS011;17371;51.328;3.860;2022-12-29T07:36:29;13.27;;;2.47;;
30605;SDS011;17371;51.328;3.860;2022-12-29T07:38:55;12.97;;;2.90;;
30605;SDS011;17371;51.328;3.860;2022-12-29T07:41:20;13.87;;;2.43;;
30605;SDS011;17371;51.328;3.860;2022-12-29T07:43:46;18.23;;;2.13;;
30605;SDS011;17371;51.328;3.860;2022-12-29T07:46:12;16.92;;;2.15;;
30605;SDS011;17371;51.328;3.860;2022-12-29T07:48:38;10.67;;;2.17;;
30605;SDS011;17371;51.328;3.860;2022-12-29T07:51:06;10.27;;;2.15;;
30605;SDS011;17371;51.328;3.860;2022-12-29T07:53:31;14.25;;;2.15;;
30605;SDS011;17371;51.328;3.860;2022-12-29T07:55:57;16.47;;;2.50;;
30605;SDS011;17371;51.328;3.860;2022-12-29T07:58:22;15.73;;;2.20;;
30605;SDS011;17371;51.328;3.860;2022-12-29T08:00:47;18.50;;;2.83;;
30605;SDS011;17371;51.328;3.860;2022-12-29T08:03:18;10.40;;;1.92;;
30605;SDS011;17371;51.328;3.860;2022-12-29T08:05:43;15.47;;;1.90;;
30605;SDS011;17371;51.328;3.860;2022-12-29T08:08:10;12.63;;;2.10;;
30605;SDS011;17371;51.328;3.860;2022-12-29T08:10:35;14.65;;;2.28;;
30605;SDS011;17371;51.328;3.860;2022-12-29T08:13:01;13.53;;;1.90;;
30605;SDS011;17371;51.328;3.860;2022-12-29T08:15:26;16.65;;;2.35;;
30605;SDS011;17371;51.328;3.860;2022-12-29T08:17:51;10.80;;;2.17;;
30605;SDS011;17371;51.328;3.860;2022-12-29T08:20:17;13.53;;;2.30;;
30605;SDS011;17371;51.328;3.860;2022-12-29T08:22:42;12.90;;;2.47;;
30605;SDS011;17371;51.328;3.860;2022-12-29T08:25:09;18.93;;;2.10;;
30605;SDS011;17371;51.328;3.860;2022-12-29T08:27:34;14.77;;;1.75;;
30605;SDS011;17371;51.328;3.860;2022-12-29T08:30:00;20.10;;;2.50;;
30605;SDS011;17371;51.328;3.860;2022-12-29T08:32:25;19.63;;;2.20;;
30605;SDS011;17371;51.328;3.860;2022-12-29T08:34:51;16.20;;;1.75;;
30605;SDS011;17371;51.328;3.860;2022-12-29T08:37:16;11.63;;;2.13;;
30605;SDS011;17371;51.328;3.860;2022-12-29T08:39:42;12.93;;;2.85;;
30605;SDS011;17371;51.328;3.860;2022-12-29T08:42:09;12.95;;;2.10;;
30605;SDS011;17371;51.328;3.860;2022-12-29T08:44:34;14.80;;;2.37;;
30605;SDS011;17371;51.328;3.860;2022-12-29T08:46:59;14.95;;;2.28;;
30605;SDS011;17371;51.328;3.860;2022-12-29T08:49:25;17.93;;;2.60;;
30605;SDS011;17371;51.328;3.860;2022-12-29T08:51:50;11.77;;;2.07;;
30605;SDS011;17371;51.328;3.860;2022-12-29T08:54:16;15.73;;;2.00;;
30605;SDS011;17371;51.328;3.860;2022-12-29T08:56:41;18.47;;;2.73;;
30605;SDS011;17371;51.328;3.860;2022-12-29T08:59:08;11.15;;;2.13;;
30605;SDS011;17371;51.328;3.860;2022-12-29T09:01:33;17.20;;;2.40;;
30605;SDS011;17371;51.328;3.860;2022-12-29T09:03:59;17.33;;;2.40;;
30605;SDS011;17371;51.328;3.860;2022-12-29T09:06:24;12.32;;;2.00;;
30605;SDS011;17371;51.328;3.860;2022-12-29T09:08:49;12.67;;;2.50;;
30605;SDS011;17371;51.328;3.860;2022-12-29T09:11:16;14.77;;;2.57;;
30605;SDS011;17371;51.328;3.860;2022-12-29T09:13:43;15.60;;;2.30;;
30605;SDS011;17371;51.328;3.860;2022-12-29T09:16:10;18.10;;;2.93;;
30605;SDS011;17371;51.328;3.860;2022-12-29T09:18:36;15.75;;;1.95;;
30605;SDS011;17371;51.328;3.860;2022-12-29T09:21:03;17.23;;;3.17;;
30605;SDS011;17371;51.328;3.860;2022-12-29T09:23:30;16.50;;;2.40;;
30605;SDS011;17371;51.328;3.860;2022-12-29T09:25:56;16.88;;;2.90;;
30605;SDS011;17371;51.328;3.860;2022-12-29T09:28:21;24.43;;;3.00;;
30605;SDS011;17371;51.328;3.860;2022-12-29T09:30:47;21.60;;;3.20;;
30605;SDS011;17371;51.328;3.860;2022-12-29T09:33:14;18.17;;;2.93;;
30605;SDS011;17371;51.328;3.860;2022-12-29T09:35:41;18.48;;;2.50;;
30605;SDS011;17371;51.328;3.860;2022-12-29T09:38:06;18.30;;;2.63;;
30605;SDS011;17371;51.328;3.860;2022-12-29T09:40:33;18.17;;;3.83;;
30605;SDS011;17371;51.328;3.860;2022-12-29T09:43:07;18.90;;;3.28;;
30605;SDS011;17371;51.328;3.860;2022-12-29T09:45:40;17.93;;;3.10;;
30605;SDS011;17371;51.328;3.860;2022-12-29T09:48:08;15.25;;;3.22;;
30605;SDS011;17371;51.328;3.860;2022-12-29T09:50:39;21.15;;;2.97;;
30605;SDS011;17371;51.328;3.860;2022-12-29T09:53:07;16.05;;;2.50;;
30605;SDS011;17371;51.328;3.860;2022-12-29T09:55:39;14.57;;;2.67;;
30605;SDS011;17371;51.328;3.860;2022-12-29T09:58:09;18.23;;;2.77;;
30605;SDS011;17371;51.328;3.860;2022-12-29T10:00:38;18.42;;;3.00;;
30605;SDS011;17371;51.328;3.860;2022-12-29T10:03:09;19.40;;;2.92;;
30605;SDS011;17371;51.328;3.860;2022-12-29T10:05:42;19.40;;;2.97;;
30605;SDS011;17371;51.328;3.860;2022-12-29T10:08:14;17.65;;;2.58;;
30605;SDS011;17371;51.328;3.860;2022-12-29T10:10:50;14.27;;;2.80;;
30605;SDS011;17371;51.328;3.860;2022-12-29T10:13:22;19.52;;;2.95;;
30605;SDS011;17371;51.328;3.860;2022-12-29T10:16:01;20.00;;;3.28;;
30605;SDS011;17371;51.328;3.860;2022-12-29T10:18:34;14.05;;;2.28;;
30605;SDS011;17371;51.328;3.860;2022-12-29T10:21:08;12.63;;;2.60;;
30605;SDS011;17371;51.328;3.860;2022-12-29T10:23:40;13.83;;;2.43;;
30605;SDS011;17371;51.328;3.860;2022-12-29T10:26:08;14.60;;;2.80;;
30605;SDS011;17371;51.328;3.860;2022-12-29T10:28:37;17.63;;;2.78;;
30605;SDS011;17371;51.328;3.860;2022-12-29T10:31:04;20.35;;;2.75;;
30605;SDS011;17371;51.328;3.860;2022-12-29T10:33:34;15.73;;;2.65;;
30605;SDS011;17371;51.328;3.860;2022-12-29T10:36:04;17.93;;;2.70;;
30605;SDS011;17371;51.328;3.860;2022-12-29T10:38:40;17.13;;;2.95;;
30605;SDS011;17371;51.328;3.860;2022-12-29T10:41:11;15.63;;;2.75;;
30605;SDS011;17371;51.328;3.860;2022-12-29T10:43:40;16.95;;;3.05;;
30605;SDS011;17371;51.328;3.860;2022-12-29T10:46:09;14.70;;;2.85;;
30605;SDS011;17371;51.328;3.860;2022-12-29T10:48:37;17.67;;;2.97;;
30605;SDS011;17371;51.328;3.860;2022-12-29T10:51:04;13.23;;;2.55;;
30605;SDS011;17371;51.328;3.860;2022-12-29T10:53:33;17.95;;;2.75;;
30605;SDS011;17371;51.328;3.860;2022-12-29T10:56:02;18.42;;;2.85;;
30605;SDS011;17371;51.328;3.860;2022-12-29T10:58:31;16.67;;;3.13;;
30605;SDS011;17371;51.328;3.860;2022-12-29T11:00:56;15.87;;;2.60;;
30605;SDS011;17371;51.328;3.860;2022-12-29T11:03:28;17.73;;;2.93;;
30605;SDS011;17371;51.328;3.860;2022-12-29T11:06:14;12.52;;;3.22;;
30605;SDS011;17371;51.328;3.860;2022-12-29T11:08:46;17.35;;;2.97;;
30605;SDS011;17371;51.328;3.860;2022-12-29T11:11:21;19.30;;;2.97;;
30605;SDS011;17371;51.328;3.860;2022-12-29T11:13:49;14.77;;;2.70;;
30605;SDS011;17371;51.328;3.860;2022-12-29T11:16:16;15.60;;;2.90;;
30605;SDS011;17371;51.328;3.860;2022-12-29T11:18:52;16.17;;;2.30;;
30605;SDS011;17371;51.328;3.860;2022-12-29T11:21:25;18.23;;;2.43;;
30605;SDS011;17371;51.328;3.860;2022-12-29T11:23:56;14.75;;;2.35;;
30605;SDS011;17371;51.328;3.860;2022-12-29T11:26:22;18.47;;;3.50;;
30605;SDS011;17371;51.328;3.860;2022-12-29T11:29:03;17.13;;;3.17;;
30605;SDS011;17371;51.328;3.860;2022-12-29T11:31:43;16.30;;;2.78;;
30605;SDS011;17371;51.328;3.860;2022-12-29T11:34:15;10.90;;;2.42;;
30605;SDS011;17371;51.328;3.860;2022-12-29T11:36:42;11.93;;;2.13;;
30605;SDS011;17371;51.328;3.860;2022-12-29T11:39:16;19.57;;;2.50;;
30605;SDS011;17371;51.328;3.860;2022-12-29T11:41:51;11.82;;;3.08;;
30605;SDS011;17371;51.328;3.860;2022-12-29T11:44:17;14.33;;;2.43;;
30605;SDS011;17371;51.328;3.860;2022-12-29T11:46:44;16.23;;;2.90;;
30605;SDS011;17371;51.328;3.860;2022-12-29T11:49:11;15.93;;;2.33;;
30605;SDS011;17371;51.328;3.860;2022-12-29T11:51:41;10.68;;;2.17;;
30605;SDS011;17371;51.328;3.860;2022-12-29T11:54:11;16.02;;;3.03;;
30605;SDS011;17371;51.328;3.860;2022-12-29T11:56:40;10.30;;;2.10;;
30605;SDS011;17371;51.328;3.860;2022-12-29T11:59:34;12.32;;;2.15;;
30605;SDS011;17371;51.328;3.860;2022-12-29T12:02:03;8.63;;;2.20;;
30605;SDS011;17371;51.328;3.860;2022-12-29T12:04:46;8.48;;;1.73;;
30605;SDS011;17371;51.328;3.860;2022-12-29T12:07:15;9.80;;;2.17;;
30605;SDS011;17371;51.328;3.860;2022-12-29T12:09:45;5.38;;;1.60;;
30605;SDS011;17371;51.328;3.860;2022-12-29T12:12:15;13.73;;;2.10;;
30605;SDS011;17371;51.328;3.860;2022-12-29T12:14:50;13.13;;;2.13;;
30605;SDS011;17371;51.328;3.860;2022-12-29T12:17:18;12.02;;;2.00;;
30605;SDS011;17371;51.328;3.860;2022-12-29T12:19:47;11.07;;;1.70;;
30605;SDS011;17371;51.328;3.860;2022-12-29T12:22:17;8.68;;;1.73;;
30605;SDS011;17371;51.328;3.860;2022-12-29T12:24:48;9.68;;;2.58;;
30605;SDS011;17371;51.328;3.860;2022-12-29T12:27:16;9.10;;;2.00;;
30605;SDS011;17371;51.328;3.860;2022-12-29T12:29:46;12.95;;;2.03;;
30605;SDS011;17371;51.328;3.860;2022-12-29T12:32:17;7.97;;;1.67;;
30605;SDS011;17371;51.328;3.860;2022-12-29T12:34:45;12.30;;;2.15;;
30605;SDS011;17371;51.328;3.860;2022-12-29T12:37:29;10.25;;;2.38;;
30605;SDS011;17371;51.328;3.860;2022-12-29T12:42:59;7.25;;;2.03;;
30605;SDS011;17371;51.328;3.860;2022-12-29T12:45:34;11.77;;;2.13;;
30605;SDS011;17371;51.328;3.860;2022-12-29T12:48:08;13.25;;;2.42;;
30605;SDS011;17371;51.328;3.860;2022-12-29T12:50:43;12.98;;;2.55;;
30605;SDS011;17371;51.328;3.860;2022-12-29T12:53:19;15.27;;;2.43;;
30605;SDS011;17371;51.328;3.860;2022-12-29T12:56:08;9.05;;;2.08;;
30605;SDS011;17371;51.328;3.860;2022-12-29T12:58:43;10.27;;;2.20;;
30605;SDS011;17371;51.328;3.860;2022-12-29T13:01:17;11.52;;;2.20;;
30605;SDS011;17371;51.328;3.860;2022-12-29T13:03:54;12.27;;;2.45;;
30605;SDS011;17371;51.328;3.860;2022-12-29T13:06:32;9.03;;;2.33;;
30605;SDS011;17371;51.328;3.860;2022-12-29T13:09:08;9.65;;;2.13;;
30605;SDS011;17371;51.328;3.860;2022-12-29T13:11:43;12.02;;;2.78;;
30605;SDS011;17371;51.328;3.860;2022-12-29T13:14:19;8.95;;;2.30;;
30605;SDS011;17371;51.328;3.860;2022-12-29T13:16:48;7.25;;;1.92;;
30605;SDS011;17371;51.328;3.860;2022-12-29T13:19:17;10.57;;;1.83;;
30605;SDS011;17371;51.328;3.860;2022-12-29T13:21:56;9.07;;;2.10;;
30605;SDS011;17371;51.328;3.860;2022-12-29T13:24:28;7.60;;;1.40;;
30605;SDS011;17371;51.328;3.860;2022-12-29T13:27:03;11.07;;;2.00;;
30605;SDS011;17371;51.328;3.860;2022-12-29T13:29:35;12.60;;;1.98;;
30605;SDS011;17371;51.328;3.860;2022-12-29T13:32:07;8.13;;;2.10;;
30605;SDS011;17371;51.328;3.860;2022-12-29T13:34:46;12.43;;;2.60;;
30605;SDS011;17371;51.328;3.860;2022-12-29T13:37:17;11.80;;;1.67;;
30605;SDS011;17371;51.328;3.860;2022-12-29T13:39:45;7.40;;;1.50;;
30605;SDS011;17371;51.328;3.860;2022-12-29T13:42:14;11.98;;;1.83;;
30605;SDS011;17371;51.328;3.860;2022-12-29T13:44:43;7.87;;;2.20;;
30605;SDS011;17371;51.328;3.860;2022-12-29T13:47:19;15.35;;;2.20;;
30605;SDS011;17371;51.328;3.860;2022-12-29T13:49:51;9.98;;;1.65;;
30605;SDS011;17371;51.328;3.860;2022-12-29T13:52:18;5.85;;;1.58;;
30605;SDS011;17371;51.328;3.860;2022-12-29T13:54:51;10.43;;;1.50;;
30605;SDS011;17371;51.328;3.860;2022-12-29T13:57:26;7.97;;;1.67;;
30605;SDS011;17371;51.328;3.860;2022-12-29T13:59:59;9.63;;;1.50;;
30605;SDS011;17371;51.328;3.860;2022-12-29T14:02:30;8.73;;;1.83;;
30605;SDS011;17371;51.328;3.860;2022-12-29T14:05:00;7.05;;;1.73;;
30605;SDS011;17371;51.328;3.860;2022-12-29T14:07:27;12.48;;;2.13;;
30605;SDS011;17371;51.328;3.860;2022-12-29T14:09:53;12.97;;;1.57;;
30605;SDS011;17371;51.328;3.860;2022-12-29T14:12:20;6.43;;;1.60;;
30605;SDS011;17371;51.328;3.860;2022-12-29T14:14:48;6.78;;;1.15;;
30605;SDS011;17371;51.328;3.860;2022-12-29T14:17:17;7.97;;;1.60;;
30605;SDS011;17371;51.328;3.860;2022-12-29T14:19:45;7.85;;;1.40;;
30605;SDS011;17371;51.328;3.860;2022-12-29T14:22:12;6.43;;;1.50;;
30605;SDS011;17371;51.328;3.860;2022-12-29T14:24:38;3.63;;;1.02;;
30605;SDS011;17371;51.328;3.860;2022-12-29T14:33:12;4.93;;;1.30;;
30605;SDS011;17371;51.328;3.860;2022-12-29T14:35:39;4.40;;;1.40;;
30605;SDS011;17371;51.328;3.860;2022-12-29T14:38:16;4.22;;;1.42;;
30605;SDS011;17371;51.328;3.860;2022-12-29T14:40:43;6.30;;;1.40;;
30605;SDS011;17371;51.328;3.860;2022-12-29T14:43:11;8.50;;;1.50;;
30605;SDS011;17371;51.328;3.860;2022-12-29T14:45:37;9.52;;;1.83;;
30605;SDS011;17371;51.328;3.860;2022-12-29T14:48:21;6.13;;;1.37;;
30605;SDS011;17371;51.328;3.860;2022-12-29T14:50:50;11.88;;;1.70;;
30605;SDS011;17371;51.328;3.860;2022-12-29T14:56:08;3.58;;;1.30;;
30605;SDS011;17371;51.328;3.860;2022-12-29T14:58:38;5.43;;;1.23;;